Atlantic - Newfoundland: Past 24 Hour Conditions

 

Grates Cove

02:30 AM NDT 17 April 2014
This table is a summary of hourly weather conditions for the past 24 hours.
Date / Time
(NDT)
Wind(knots) Conditions Visibility(km) Pressure(kPa) Air tempC) Relative humidity(%) Dew pointC)
17 April 2014
2:30 WNW 16 N/A N/A 102.0 3 88 2
1:30 W 23 N/A N/A 101.9 5 88 4
0:30 WSW 18 gust 26 N/A N/A 101.7 7 91 5
16 April 2014
23:30 W 23 gust 29 N/A N/A 101.6 7 96 6
22:30 WSW 32 gust 41 N/A N/A 101.4 10 91 8
21:30 WSW 22 gust 33 N/A N/A 101.3 12 86 10
20:30 SSW 14 gust 20 N/A N/A 101.3 11 82 8
19:30 SW 15 N/A N/A 101.4 13 80 9
18:30 SW 19 gust 28 N/A N/A 101.4 15 72 10
17:30 SW 19 gust 31 N/A N/A 101.4 16 69 10
16:30 WSW 17 gust 24 N/A N/A 101.4 11 80 7
15:30 WSW 25 gust 35 N/A N/A 101.5 13 74 9
14:30 WSW 25 gust 34 N/A N/A 101.5 15 72 10
13:30 WSW 21 gust 34 N/A N/A 101.6 15 72 10
12:30 WSW 25 gust 36 N/A N/A 101.6 13 75 9
11:30 WSW 25 gust 33 N/A N/A 101.7 13 79 10
10:30 WSW 25 gust 31 N/A N/A 101.7 13 82 10
9:30 WSW 21 gust 28 N/A N/A 101.7 12 88 10
8:30 WSW 20 gust 29 N/A N/A 101.7 11 93 10
7:30 WSW 27 gust 35 N/A N/A 101.6 10 94 9
6:30 WSW 27 gust 33 N/A N/A 101.6 11 93 10
5:30 WSW 23 gust 32 N/A N/A 101.5 11 94 10
4:30 WSW 21 gust 28 N/A N/A 101.6 10 97 10
3:30 WSW 19 gust 27 N/A N/A 101.6 11 95 10
2:30 WSW 18 N/A N/A 101.7 10 96 10
 
Map of Atlantic - Newfoundland marine weather areas Southwestern Grand Banks - 44138 Banquereau - 44139 Tail of the Bank - 44140 Nickerson Bank - 44251 Northeast Burgeo Bank - 44255 Blanc-Sablon Airport Cap Whittle Chevery Natashquan Airport Heath Point Miscou Island Grand Étang Ingonish Beach North Mountain St.Paul Island J.A. Douglas McCurdy Sydney Airport Charlottetown Airport East Point North Cape Argentia Bonavista Burgeo Cape Race Corner Brook Daniel's Harbour Englee Ferolle Point La Scie Port aux Basques Rocky Harbour Sagona Island St. Anthony Airport St. John's Int'l Airport St. Lawrence Stephenville Airport Twillingate Winterland Wreckhouse Cartwright Airport Mary's Harbour Grates Cove Pool's Island Marticot Island Long Pond Îles de la Madeleine Airport
Legend: buoyBuoy land stationLand Station